createdAt,value
2022-10-18T00:00:00.510Z,17.10
2022-10-18T00:02:27.314Z,17.10
2022-10-18T00:04:53.930Z,17.10
2022-10-18T00:07:20.611Z,17.00
2022-10-18T00:09:47.201Z,17.00
2022-10-18T00:12:13.819Z,17.00
2022-10-18T00:14:40.516Z,17.00
2022-10-18T00:17:07.298Z,17.00
2022-10-18T00:19:33.997Z,17.00
2022-10-18T00:22:00.559Z,17.00
2022-10-18T00:24:27.179Z,16.90
2022-10-18T00:26:53.768Z,16.90
2022-10-18T00:29:20.460Z,17.00
2022-10-18T00:31:47.099Z,16.90
2022-10-18T00:34:16.063Z,16.80
2022-10-18T00:36:43.789Z,16.80
2022-10-18T00:39:17.461Z,16.80
2022-10-18T00:41:45.066Z,16.70
2022-10-18T00:44:11.622Z,16.70
2022-10-18T00:46:46.572Z,16.80
2022-10-18T00:49:21.425Z,16.80
2022-10-18T00:51:57.532Z,16.80
2022-10-18T00:54:26.049Z,16.80
2022-10-18T00:56:52.852Z,16.80
2022-10-18T00:59:20.249Z,16.80
2022-10-18T01:01:46.911Z,16.60
2022-10-18T01:04:18.903Z,16.60
2022-10-18T01:07:23.479Z,16.60
2022-10-18T01:10:08.240Z,16.60
2022-10-18T01:13:01.183Z,16.70
2022-10-18T01:15:41.579Z,16.70
2022-10-18T01:18:30.858Z,16.70
2022-10-18T01:21:09.654Z,16.80
2022-10-18T01:23:50.931Z,16.50
2022-10-18T01:26:17.581Z,16.50
2022-10-18T01:28:56.428Z,16.60
2022-10-18T01:31:34.807Z,16.60
2022-10-18T01:34:05.757Z,16.50
2022-10-18T01:36:35.766Z,16.70
2022-10-18T01:39:06.925Z,16.70
2022-10-18T01:41:36.959Z,16.70
2022-10-18T01:44:06.537Z,16.60
2022-10-18T01:46:33.718Z,16.60
2022-10-18T01:49:00.668Z,16.70
2022-10-18T01:51:29.967Z,16.50
2022-10-18T01:53:57.505Z,16.70
2022-10-18T01:56:44.405Z,16.60
2022-10-18T01:59:29.625Z,16.70
2022-10-18T02:02:06.363Z,16.80
2022-10-18T02:04:44.584Z,16.80
2022-10-18T02:07:33.944Z,16.90
2022-10-18T02:10:18.739Z,16.70
2022-10-18T02:12:46.774Z,16.70
2022-10-18T02:15:17.276Z,16.70
2022-10-18T02:17:45.688Z,16.70
2022-10-18T02:20:16.648Z,16.70
2022-10-18T02:22:46.041Z,16.80
2022-10-18T02:25:19.529Z,16.60
2022-10-18T02:27:46.471Z,16.80
2022-10-18T02:30:15.348Z,16.80
2022-10-18T02:32:50.404Z,16.80
2022-10-18T02:35:30.841Z,16.70
2022-10-18T02:37:58.718Z,16.60
2022-10-18T02:40:26.324Z,16.50
2022-10-18T02:42:56.834Z,16.50
2022-10-18T02:45:23.755Z,16.40
2022-10-18T02:47:50.797Z,16.60
2022-10-18T02:50:17.759Z,16.40
2022-10-18T02:52:44.825Z,16.40
2022-10-18T02:55:11.533Z,16.40
2022-10-18T02:57:38.225Z,16.60
2022-10-18T03:00:06.353Z,16.50
2022-10-18T03:02:32.982Z,16.40
2022-10-18T03:04:59.639Z,16.50
2022-10-18T03:07:26.880Z,16.60
2022-10-18T03:09:53.541Z,16.60
2022-10-18T03:12:20.203Z,16.40
2022-10-18T03:14:46.936Z,16.40
2022-10-18T03:17:13.557Z,16.50
2022-10-18T03:19:40.198Z,16.20
2022-10-18T03:22:06.818Z,16.30
2022-10-18T03:24:34.273Z,16.10
2022-10-18T03:27:00.897Z,15.90
2022-10-18T03:29:27.552Z,16.00
2022-10-18T03:31:54.117Z,16.00
2022-10-18T03:34:20.789Z,16.10
2022-10-18T03:36:47.577Z,15.90
2022-10-18T03:39:14.262Z,15.90
2022-10-18T03:41:40.953Z,16.00
2022-10-18T03:44:07.651Z,15.80
2022-10-18T03:46:34.245Z,15.60
2022-10-18T03:49:00.857Z,15.70
2022-10-18T03:51:27.461Z,15.90
2022-10-18T03:53:54.023Z,16.00
2022-10-18T03:56:20.615Z,15.70
2022-10-18T03:58:47.206Z,16.00
2022-10-18T04:01:13.897Z,15.80
2022-10-18T04:03:40.533Z,15.80
2022-10-18T04:06:09.969Z,16.00
2022-10-18T04:08:36.636Z,15.70
2022-10-18T04:11:08.504Z,15.90
2022-10-18T04:13:35.637Z,15.80
2022-10-18T04:16:02.391Z,16.10
2022-10-18T04:18:29.060Z,16.10
2022-10-18T04:20:55.676Z,16.10
2022-10-18T04:23:22.336Z,16.00
2022-10-18T04:25:48.966Z,16.00
2022-10-18T04:28:15.571Z,15.80
2022-10-18T04:30:42.143Z,15.80
2022-10-18T04:33:08.720Z,15.80
2022-10-18T04:35:35.409Z,15.80
2022-10-18T04:38:02.021Z,16.10
2022-10-18T04:40:28.589Z,16.00
2022-10-18T04:42:55.930Z,15.60
2022-10-18T04:45:22.673Z,15.80
2022-10-18T04:47:49.262Z,16.00
2022-10-18T04:50:16.039Z,16.00
2022-10-18T04:52:42.677Z,15.70
2022-10-18T04:55:09.531Z,15.70
2022-10-18T04:57:36.089Z,15.90
2022-10-18T05:00:03.030Z,15.80
2022-10-18T05:02:29.887Z,16.10
2022-10-18T05:04:56.738Z,16.00
2022-10-18T05:07:23.424Z,16.10
2022-10-18T05:09:50.046Z,15.90
2022-10-18T05:12:16.712Z,16.20
2022-10-18T05:14:43.273Z,16.00
2022-10-18T05:17:09.931Z,16.00
2022-10-18T05:19:36.626Z,16.00
2022-10-18T05:22:03.258Z,16.20
2022-10-18T05:24:29.897Z,16.10
2022-10-18T05:26:57.053Z,16.00
2022-10-18T05:29:24.000Z,16.30
2022-10-18T05:31:50.952Z,16.00
2022-10-18T05:34:20.541Z,15.90
2022-10-18T05:36:49.278Z,16.20
2022-10-18T05:39:15.917Z,16.00
2022-10-18T05:41:42.484Z,16.20
2022-10-18T05:44:09.662Z,15.90
2022-10-18T05:46:36.403Z,16.00
2022-10-18T05:49:03.032Z,15.90
2022-10-18T05:51:29.756Z,16.10
2022-10-18T05:53:56.382Z,16.00
2022-10-18T05:56:23.045Z,16.20
2022-10-18T05:58:51.201Z,16.20
2022-10-18T06:01:18.483Z,15.90
2022-10-18T06:03:45.115Z,16.20
2022-10-18T06:06:13.134Z,15.90
2022-10-18T06:08:41.666Z,15.90
2022-10-18T06:11:10.766Z,16.20
2022-10-18T06:13:45.001Z,16.10
2022-10-18T06:16:13.112Z,15.90
2022-10-18T06:18:40.152Z,15.80
2022-10-18T06:21:07.951Z,15.80
2022-10-18T06:23:35.261Z,15.80
2022-10-18T06:26:04.020Z,15.90
2022-10-18T06:28:30.731Z,15.70
2022-10-18T06:30:58.084Z,16.00
2022-10-18T06:33:25.076Z,16.20
2022-10-18T06:36:03.041Z,15.90
2022-10-18T06:38:30.107Z,15.80
2022-10-18T06:40:57.938Z,16.30
2022-10-18T06:43:25.029Z,16.20
2022-10-18T06:45:52.383Z,15.90
2022-10-18T06:50:59.488Z,15.90
2022-10-18T06:53:28.165Z,16.10
2022-10-18T06:56:10.720Z,16.30
2022-10-18T06:58:37.838Z,15.90
2022-10-18T07:01:18.203Z,16.40
2022-10-18T07:03:46.154Z,16.30
2022-10-18T07:06:15.470Z,15.90
2022-10-18T07:08:42.133Z,16.40
2022-10-18T07:11:13.791Z,16.20
2022-10-18T07:13:40.366Z,16.20
2022-10-18T07:16:15.662Z,16.20
2022-10-18T07:18:47.660Z,16.60
2022-10-18T07:21:16.196Z,16.60
2022-10-18T07:23:46.099Z,16.40
2022-10-18T07:26:27.337Z,16.00
2022-10-18T07:28:57.934Z,16.40
2022-10-18T07:31:25.258Z,16.00
2022-10-18T07:33:52.044Z,16.10
2022-10-18T07:36:20.987Z,16.60
2022-10-18T07:38:47.987Z,16.50
2022-10-18T07:41:15.188Z,16.60
2022-10-18T07:43:45.777Z,16.40
2022-10-18T07:46:13.506Z,16.40
2022-10-18T07:48:40.317Z,16.50
2022-10-18T07:51:07.033Z,16.40
2022-10-18T07:53:34.523Z,16.10
2022-10-18T07:56:05.901Z,16.00
2022-10-18T07:58:35.398Z,16.20
2022-10-18T08:01:03.564Z,16.50
2022-10-18T08:03:30.161Z,16.60
2022-10-18T08:05:57.147Z,16.20
2022-10-18T08:08:24.780Z,16.40
2022-10-18T08:10:51.955Z,16.70
2022-10-18T08:13:18.782Z,16.60
2022-10-18T08:15:45.441Z,16.30
2022-10-18T08:18:12.288Z,16.90
2022-10-18T08:20:46.189Z,16.50
2022-10-18T08:23:15.767Z,16.90
2022-10-18T08:25:42.440Z,17.00
2022-10-18T08:28:09.200Z,17.00
2022-10-18T08:30:36.381Z,17.00
2022-10-18T08:33:03.821Z,16.90
2022-10-18T08:35:31.776Z,16.30
2022-10-18T08:37:59.311Z,16.90
2022-10-18T08:40:29.007Z,16.60
2022-10-18T08:43:01.013Z,17.00
2022-10-18T08:45:41.874Z,17.20
2022-10-18T08:48:21.908Z,17.10
2022-10-18T08:50:49.822Z,16.90
2022-10-18T08:53:25.225Z,17.40
2022-10-18T08:56:00.594Z,16.80
2022-10-18T08:58:31.718Z,16.90
2022-10-18T09:01:13.662Z,16.90
2022-10-18T09:04:15.403Z,17.40
2022-10-18T09:06:52.442Z,17.60
2022-10-18T09:09:55.135Z,17.30
2022-10-18T09:12:27.819Z,17.10
2022-10-18T09:15:06.761Z,17.20
2022-10-18T09:17:58.158Z,17.90
2022-10-18T09:20:46.109Z,17.10
2022-10-18T09:23:19.638Z,17.40
2022-10-18T09:25:48.923Z,17.90
2022-10-18T09:28:34.234Z,17.80
2022-10-18T09:31:21.988Z,17.80
2022-10-18T09:33:58.266Z,17.90
2022-10-18T09:36:27.874Z,17.50
2022-10-18T09:39:00.470Z,17.70
2022-10-18T09:41:40.861Z,17.20
2022-10-18T09:44:25.377Z,17.40
2022-10-18T09:47:01.731Z,17.60
2022-10-18T09:49:37.388Z,18.00
2022-10-18T09:52:08.128Z,17.90
2022-10-18T09:54:47.756Z,17.80
2022-10-18T09:57:23.366Z,18.10
2022-10-18T09:59:50.981Z,18.90
2022-10-18T10:02:21.927Z,18.80
2022-10-18T10:04:54.162Z,18.10
2022-10-18T10:07:28.581Z,18.00
2022-10-18T10:10:13.441Z,18.60
2022-10-18T10:12:41.457Z,18.60
2022-10-18T10:15:29.555Z,17.90
2022-10-18T10:18:19.174Z,17.90
2022-10-18T10:20:55.028Z,18.20
2022-10-18T10:23:32.516Z,18.20
2022-10-18T10:26:02.567Z,18.10
2022-10-18T10:28:34.755Z,17.80
2022-10-18T10:31:26.932Z,17.60
2022-10-18T10:34:13.292Z,18.10
2022-10-18T10:36:54.101Z,17.80
2022-10-18T10:39:23.103Z,17.70
2022-10-18T10:41:53.150Z,17.80
2022-10-18T10:44:28.775Z,18.10
2022-10-18T10:46:55.769Z,17.60
2022-10-18T10:49:46.131Z,17.60
2022-10-18T10:52:27.285Z,17.60
2022-10-18T10:55:05.704Z,17.70
2022-10-18T10:57:46.474Z,17.50
2022-10-18T11:00:40.930Z,17.60
2022-10-18T11:03:29.195Z,17.50
2022-10-18T11:05:57.771Z,17.80
2022-10-18T11:08:27.729Z,17.70
2022-10-18T11:11:23.086Z,17.70
2022-10-18T11:14:25.770Z,18.10
2022-10-18T11:17:21.427Z,17.80
2022-10-18T11:20:02.520Z,17.80
2022-10-18T11:22:38.714Z,18.00
2022-10-18T11:25:06.018Z,18.20
2022-10-18T11:27:44.750Z,18.30
2022-10-18T11:30:37.089Z,18.40
2022-10-18T11:33:38.262Z,18.30
2022-10-18T11:36:17.764Z,18.20
2022-10-18T11:38:57.625Z,18.00
2022-10-18T11:41:31.742Z,18.20
2022-10-18T11:44:03.266Z,18.20
2022-10-18T11:46:57.895Z,18.40
2022-10-18T11:49:42.372Z,18.50
2022-10-18T11:52:15.832Z,18.30
2022-10-18T11:54:57.327Z,18.10
2022-10-18T11:57:35.908Z,18.00
2022-10-18T12:00:39.245Z,18.00
2022-10-18T12:03:34.973Z,18.10
2022-10-18T12:06:05.771Z,18.10
2022-10-18T12:08:59.590Z,18.30
2022-10-18T12:11:50.230Z,18.60
2022-10-18T12:14:42.428Z,18.70
2022-10-18T12:17:42.727Z,18.40
2022-10-18T12:20:31.034Z,18.50
2022-10-18T12:23:18.406Z,18.50
2022-10-18T12:26:00.815Z,18.50
2022-10-18T12:28:42.887Z,18.40
2022-10-18T12:31:21.943Z,18.50
2022-10-18T12:33:53.807Z,18.60
2022-10-18T12:36:33.638Z,18.40
2022-10-18T12:39:03.247Z,18.40
2022-10-18T12:41:31.253Z,18.30
2022-10-18T12:44:21.451Z,18.20
2022-10-18T12:46:56.033Z,18.30
2022-10-18T12:49:41.307Z,18.30
2022-10-18T12:52:27.960Z,18.30
2022-10-18T12:55:07.885Z,18.30
2022-10-18T12:57:52.928Z,18.40
2022-10-18T13:00:31.307Z,18.40
2022-10-18T13:03:10.435Z,18.40
2022-10-18T13:05:54.438Z,18.30
2022-10-18T13:08:27.979Z,18.10
2022-10-18T13:11:10.180Z,18.20
2022-10-18T13:14:05.882Z,18.20
2022-10-18T13:16:38.649Z,18.20
2022-10-18T13:19:28.119Z,18.10
2022-10-18T13:22:29.584Z,18.10
2022-10-18T13:25:10.863Z,18.20
2022-10-18T13:28:18.959Z,18.20
2022-10-18T13:31:00.941Z,18.20
2022-10-18T13:33:39.343Z,18.20
2022-10-18T13:36:22.739Z,18.20
2022-10-18T13:38:57.493Z,18.10
2022-10-18T13:41:25.753Z,18.00
2022-10-18T13:43:52.641Z,18.00
2022-10-18T13:46:20.605Z,17.90
2022-10-18T13:48:58.525Z,18.00
2022-10-18T13:51:59.161Z,18.10
2022-10-18T13:55:02.466Z,18.20
2022-10-18T13:58:13.240Z,18.20
2022-10-18T14:01:04.849Z,18.20
2022-10-18T14:03:57.690Z,18.30
2022-10-18T14:06:28.243Z,18.30
2022-10-18T14:09:06.187Z,18.20
2022-10-18T14:11:48.143Z,18.20
2022-10-18T14:14:36.689Z,18.20
2022-10-18T14:17:25.441Z,18.30
2022-10-18T14:19:58.464Z,18.30
2022-10-18T14:22:35.593Z,18.40
2022-10-18T14:25:02.566Z,18.50
2022-10-18T14:27:33.519Z,18.40
2022-10-18T14:30:20.134Z,18.40
2022-10-18T14:32:49.451Z,18.30
2022-10-18T14:35:37.895Z,18.40
2022-10-18T14:38:13.735Z,18.30
2022-10-18T14:40:41.075Z,18.20
2022-10-18T14:43:13.148Z,18.20
2022-10-18T14:45:40.587Z,18.20
2022-10-18T14:48:22.606Z,18.20
2022-10-18T14:50:59.321Z,18.20
2022-10-18T14:53:32.455Z,18.20
2022-10-18T14:56:01.245Z,18.30
2022-10-18T14:58:28.702Z,18.30
2022-10-18T15:00:55.393Z,18.30
2022-10-18T15:03:22.616Z,18.30
2022-10-18T15:05:59.518Z,18.30
2022-10-18T15:08:35.521Z,18.20
2022-10-18T15:11:02.791Z,18.20
2022-10-18T15:13:32.191Z,18.20
2022-10-18T15:15:59.674Z,18.20
2022-10-18T15:18:27.940Z,18.20
2022-10-18T15:21:24.068Z,18.20
2022-10-18T15:23:51.616Z,18.20
2022-10-18T15:26:30.307Z,18.10
2022-10-18T15:29:01.520Z,18.00
2022-10-18T15:31:34.852Z,17.90
2022-10-18T15:34:27.211Z,17.80
2022-10-18T15:36:56.978Z,17.60
2022-10-18T15:39:29.309Z,17.70
2022-10-18T15:41:58.694Z,17.60
2022-10-18T15:44:47.118Z,17.70
2022-10-18T15:47:13.792Z,17.60
2022-10-18T15:49:46.570Z,17.60
2022-10-18T15:52:32.603Z,17.60
2022-10-18T15:55:22.679Z,17.60
2022-10-18T15:57:49.579Z,17.60
2022-10-18T16:00:20.663Z,17.60
2022-10-18T16:02:47.327Z,17.60
2022-10-18T16:05:16.967Z,17.50
2022-10-18T16:07:43.488Z,17.40
2022-10-18T16:10:13.969Z,17.50
2022-10-18T16:12:40.643Z,17.40
2022-10-18T16:15:07.852Z,17.40
2022-10-18T16:17:34.829Z,17.30
2022-10-18T16:20:01.799Z,17.30
2022-10-18T16:22:29.524Z,17.20
2022-10-18T16:24:57.877Z,17.10
2022-10-18T16:27:25.737Z,17.00
2022-10-18T16:29:52.306Z,17.00
2022-10-18T16:32:18.862Z,16.90
2022-10-18T16:34:45.564Z,16.80
2022-10-18T16:37:12.199Z,16.80
2022-10-18T16:39:38.963Z,16.70
2022-10-18T16:42:05.699Z,16.60
2022-10-18T16:44:32.410Z,16.50
2022-10-18T16:46:59.052Z,16.50
2022-10-18T16:49:26.732Z,16.50
2022-10-18T16:51:54.300Z,16.40
2022-10-18T16:54:21.109Z,16.40
2022-10-18T16:56:49.993Z,16.30
2022-10-18T16:59:37.063Z,16.20
2022-10-18T17:02:08.978Z,16.10
2022-10-18T17:04:35.705Z,16.10
2022-10-18T17:07:04.738Z,16.00
2022-10-18T17:09:31.510Z,15.90
2022-10-18T17:11:58.629Z,15.80
2022-10-18T17:14:25.258Z,15.80
2022-10-18T17:16:54.899Z,15.80
2022-10-18T17:19:23.883Z,15.80
2022-10-18T17:21:50.487Z,15.80
2022-10-18T17:24:17.131Z,15.60
2022-10-18T17:26:43.893Z,15.60
2022-10-18T17:29:10.620Z,15.60
2022-10-18T17:31:37.331Z,15.50
2022-10-18T17:34:04.632Z,15.40
2022-10-18T17:36:32.287Z,15.40
2022-10-18T17:38:59.296Z,15.30
2022-10-18T17:41:25.908Z,15.30
2022-10-18T17:43:52.597Z,15.30
2022-10-18T17:46:19.762Z,15.30
2022-10-18T17:48:46.947Z,15.20
2022-10-18T17:51:15.786Z,15.20
2022-10-18T17:53:42.414Z,15.10
2022-10-18T17:56:10.339Z,15.00
2022-10-18T17:58:37.021Z,15.00
2022-10-18T18:01:12.945Z,14.90
2022-10-18T18:03:40.376Z,14.90
2022-10-18T18:06:21.734Z,14.80
2022-10-18T18:08:49.372Z,14.80
2022-10-18T18:11:17.095Z,14.80
2022-10-18T18:13:43.731Z,14.80
2022-10-18T18:16:22.006Z,14.80
2022-10-18T18:18:50.988Z,14.80
2022-10-18T18:21:17.955Z,14.80
2022-10-18T18:23:45.060Z,14.70
2022-10-18T18:26:12.452Z,14.70
2022-10-18T18:28:39.203Z,14.70
2022-10-18T18:31:14.753Z,14.70
2022-10-18T18:33:41.914Z,14.70
2022-10-18T18:36:09.444Z,14.70
2022-10-18T18:38:38.668Z,14.70
2022-10-18T18:41:15.745Z,14.70
2022-10-18T18:43:54.719Z,14.60
2022-10-18T18:46:23.141Z,14.50
2022-10-18T18:48:50.200Z,14.50
2022-10-18T18:51:19.789Z,14.50
2022-10-18T18:53:47.744Z,14.50
2022-10-18T18:58:48.634Z,14.60
2022-10-18T19:01:30.011Z,14.50
2022-10-18T19:03:58.009Z,14.50
2022-10-18T19:06:27.742Z,14.50
2022-10-18T19:09:00.162Z,14.40
2022-10-18T19:11:28.485Z,14.50
2022-10-18T19:13:55.163Z,14.40
2022-10-18T19:16:29.396Z,14.40
2022-10-18T19:18:59.938Z,14.30
2022-10-18T19:21:30.825Z,14.30
2022-10-18T19:23:58.253Z,14.30
2022-10-18T19:26:26.584Z,14.40
2022-10-18T19:28:53.413Z,14.40
2022-10-18T19:31:20.142Z,14.40
2022-10-18T19:33:58.954Z,14.40
2022-10-18T19:36:26.869Z,14.40
2022-10-18T19:38:53.503Z,14.50
2022-10-18T19:41:20.149Z,14.40
2022-10-18T19:43:46.897Z,14.40
2022-10-18T19:46:13.621Z,14.40
2022-10-18T19:48:40.254Z,14.50
2022-10-18T19:51:09.478Z,14.50
2022-10-18T19:53:36.665Z,14.50
2022-10-18T19:56:05.396Z,14.50
2022-10-18T19:58:32.297Z,14.50
2022-10-18T20:01:00.189Z,14.50
2022-10-18T20:03:31.787Z,14.40
2022-10-18T20:06:00.562Z,14.40
2022-10-18T20:08:30.079Z,14.30
2022-10-18T20:11:01.534Z,14.40
2022-10-18T20:13:28.171Z,14.40
2022-10-18T20:15:54.870Z,14.30
2022-10-18T20:18:21.566Z,14.30
2022-10-18T20:20:48.828Z,14.30
2022-10-18T20:23:16.684Z,14.30
2022-10-18T20:25:44.001Z,14.40
2022-10-18T20:28:10.582Z,14.40
2022-10-18T20:30:37.398Z,14.40
2022-10-18T20:33:04.024Z,14.40
2022-10-18T20:35:30.604Z,14.50
2022-10-18T20:37:57.299Z,14.40
2022-10-18T20:40:23.952Z,14.30
2022-10-18T20:42:52.261Z,14.30
2022-10-18T20:45:19.125Z,14.20
2022-10-18T20:47:45.796Z,14.20
2022-10-18T20:50:12.457Z,14.20
2022-10-18T20:52:39.080Z,14.20
2022-10-18T20:55:06.041Z,14.20
2022-10-18T20:57:35.739Z,14.20
2022-10-18T21:00:04.015Z,14.00
2022-10-18T21:02:30.626Z,14.00
2022-10-18T21:04:57.426Z,14.00
2022-10-18T21:07:24.089Z,14.00
2022-10-18T21:09:50.736Z,14.00
2022-10-18T21:12:17.577Z,13.90
2022-10-18T21:14:44.408Z,13.90
2022-10-18T21:17:10.996Z,13.90
2022-10-18T21:19:37.739Z,13.90
2022-10-18T21:22:04.616Z,14.00
2022-10-18T21:24:31.785Z,14.00
2022-10-18T21:26:59.088Z,13.90
2022-10-18T21:29:25.914Z,13.90
2022-10-18T21:31:57.949Z,13.90
2022-10-18T21:34:24.721Z,13.90
2022-10-18T21:36:51.359Z,13.90
2022-10-18T21:39:20.598Z,13.90
2022-10-18T21:41:47.363Z,13.90
2022-10-18T21:44:14.559Z,13.90
2022-10-18T21:46:43.060Z,13.90
2022-10-18T21:49:10.389Z,13.80
2022-10-18T21:51:37.627Z,13.80
2022-10-18T21:54:04.417Z,13.90
2022-10-18T21:56:33.943Z,13.90
2022-10-18T21:59:01.757Z,13.80
2022-10-18T22:01:34.392Z,13.80
2022-10-18T22:04:02.709Z,13.70
2022-10-18T22:06:32.535Z,13.80
2022-10-18T22:09:02.054Z,13.80
2022-10-18T22:11:35.128Z,13.80
2022-10-18T22:14:01.797Z,13.90
2022-10-18T22:16:28.610Z,13.80
2022-10-18T22:19:00.264Z,13.80
2022-10-18T22:21:27.608Z,13.80
2022-10-18T22:23:58.668Z,13.70
2022-10-18T22:26:28.478Z,13.70
2022-10-18T22:28:57.274Z,13.70
2022-10-18T22:31:26.670Z,13.60
2022-10-18T22:33:56.072Z,13.60
2022-10-18T22:36:23.426Z,13.60
2022-10-18T22:38:50.378Z,13.60
2022-10-18T22:41:17.497Z,13.50
2022-10-18T22:43:44.251Z,13.50
2022-10-18T22:46:13.772Z,13.50
2022-10-18T22:48:41.458Z,13.50
2022-10-18T22:51:08.553Z,13.40
2022-10-18T22:53:36.333Z,13.40
2022-10-18T22:56:03.700Z,13.40
2022-10-18T22:58:30.374Z,13.40
2022-10-18T23:01:02.303Z,13.50
2022-10-18T23:03:28.985Z,13.50
2022-10-18T23:05:55.990Z,13.40
2022-10-18T23:08:22.898Z,13.50
2022-10-18T23:10:57.243Z,13.50
2022-10-18T23:13:25.366Z,13.40
2022-10-18T23:15:52.067Z,13.30
2022-10-18T23:18:19.287Z,13.30
2022-10-18T23:20:46.164Z,13.30
2022-10-18T23:23:13.532Z,13.20
2022-10-18T23:25:40.171Z,13.10
2022-10-18T23:28:07.104Z,13.20
2022-10-18T23:30:33.863Z,13.20
2022-10-18T23:33:00.769Z,13.10
2022-10-18T23:35:27.399Z,13.10
2022-10-18T23:37:54.060Z,13.10
2022-10-18T23:40:20.628Z,13.10
2022-10-18T23:42:47.235Z,13.00
2022-10-18T23:45:13.813Z,13.00
2022-10-18T23:47:40.511Z,13.00
2022-10-18T23:50:07.569Z,13.00
2022-10-18T23:52:34.191Z,13.00
2022-10-18T23:55:00.849Z,13.00
2022-10-18T23:57:27.480Z,13.00
2022-10-18T23:59:54.111Z,13.00
